sensor_id;sensor_type;location;lat;lon;timestamp;temperature;humidity
6879;DHT22;3478;51.462;7.338;2023-06-24T00:04:14;18.70;99.90
6879;DHT22;3478;51.462;7.338;2023-06-24T00:09:17;18.60;99.90
6879;DHT22;3478;51.462;7.338;2023-06-24T00:14:19;18.50;99.90
6879;DHT22;3478;51.462;7.338;2023-06-24T00:19:24;18.50;99.90
6879;DHT22;3478;51.462;7.338;2023-06-24T00:24:26;18.40;99.90
6879;DHT22;3478;51.462;7.338;2023-06-24T00:29:30;18.30;99.90
6879;DHT22;3478;51.462;7.338;2023-06-24T00:34:33;18.20;99.90
6879;DHT22;3478;51.462;7.338;2023-06-24T00:39:35;18.10;99.90
6879;DHT22;3478;51.462;7.338;2023-06-24T00:44:37;18.10;99.90
6879;DHT22;3478;51.462;7.338;2023-06-24T00:49:41;18.00;99.90
6879;DHT22;3478;51.462;7.338;2023-06-24T00:54:45;18.00;99.90
6879;DHT22;3478;51.462;7.338;2023-06-24T00:59:47;17.90;99.90
6879;DHT22;3478;51.462;7.338;2023-06-24T01:04:55;18.00;99.90
6879;DHT22;3478;51.462;7.338;2023-06-24T01:09:57;17.90;99.90
6879;DHT22;3478;51.462;7.338;2023-06-24T01:15:01;17.80;99.90
6879;DHT22;3478;51.462;7.338;2023-06-24T01:20:09;17.80;99.90
6879;DHT22;3478;51.462;7.338;2023-06-24T01:25:21;17.70;99.90
6879;DHT22;3478;51.462;7.338;2023-06-24T01:30:48;17.70;99.90
6879;DHT22;3478;51.462;7.338;2023-06-24T01:35:56;17.60;99.90
6879;DHT22;3478;51.462;7.338;2023-06-24T01:41:02;17.50;99.90
6879;DHT22;3478;51.462;7.338;2023-06-24T01:46:06;17.40;99.90
6879;DHT22;3478;51.462;7.338;2023-06-24T01:51:13;17.40;99.90
6879;DHT22;3478;51.462;7.338;2023-06-24T01:56:17;17.40;99.90
6879;DHT22;3478;51.462;7.338;2023-06-24T02:01:20;17.40;99.90
6879;DHT22;3478;51.462;7.338;2023-06-24T02:06:25;17.30;99.90
6879;DHT22;3478;51.462;7.338;2023-06-24T02:11:30;17.30;99.90
6879;DHT22;3478;51.462;7.338;2023-06-24T02:16:33;17.20;99.90
6879;DHT22;3478;51.462;7.338;2023-06-24T02:21:39;17.20;99.90
6879;DHT22;3478;51.462;7.338;2023-06-24T02:26:42;17.20;99.90
6879;DHT22;3478;51.462;7.338;2023-06-24T02:31:45;17.20;99.90
6879;DHT22;3478;51.462;7.338;2023-06-24T02:36:48;17.20;99.90
6879;DHT22;3478;51.462;7.338;2023-06-24T02:41:50;17.10;99.90
6879;DHT22;3478;51.462;7.338;2023-06-24T02:46:53;17.10;99.90
6879;DHT22;3478;51.462;7.338;2023-06-24T02:51:57;17.10;99.90
6879;DHT22;3478;51.462;7.338;2023-06-24T02:56:59;17.00;99.90
6879;DHT22;3478;51.462;7.338;2023-06-24T03:02:03;16.90;99.90
6879;DHT22;3478;51.462;7.338;2023-06-24T03:07:07;16.90;99.90
6879;DHT22;3478;51.462;7.338;2023-06-24T03:12:11;17.00;99.90
6879;DHT22;3478;51.462;7.338;2023-06-24T03:17:13;17.00;99.90
6879;DHT22;3478;51.462;7.338;2023-06-24T03:22:17;17.00;99.90
6879;DHT22;3478;51.462;7.338;2023-06-24T03:27:19;17.20;99.90
6879;DHT22;3478;51.462;7.338;2023-06-24T03:32:20;17.10;99.90
6879;DHT22;3478;51.462;7.338;2023-06-24T03:37:24;17.10;99.90
6879;DHT22;3478;51.462;7.338;2023-06-24T03:42:26;17.20;99.90
6879;DHT22;3478;51.462;7.338;2023-06-24T03:47:29;17.30;99.90
6879;DHT22;3478;51.462;7.338;2023-06-24T03:52:32;17.40;99.90
6879;DHT22;3478;51.462;7.338;2023-06-24T03:57:34;17.30;99.90
6879;DHT22;3478;51.462;7.338;2023-06-24T04:02:36;17.30;99.90
6879;DHT22;3478;51.462;7.338;2023-06-24T04:07:39;17.30;99.90
6879;DHT22;3478;51.462;7.338;2023-06-24T04:12:42;17.40;99.90
6879;DHT22;3478;51.462;7.338;2023-06-24T04:17:44;17.40;99.90
6879;DHT22;3478;51.462;7.338;2023-06-24T04:22:47;17.60;99.90
6879;DHT22;3478;51.462;7.338;2023-06-24T04:27:49;17.70;99.90
6879;DHT22;3478;51.462;7.338;2023-06-24T04:32:51;17.80;99.90
6879;DHT22;3478;51.462;7.338;2023-06-24T04:37:54;17.90;99.90
6879;DHT22;3478;51.462;7.338;2023-06-24T04:42:56;18.10;99.90
6879;DHT22;3478;51.462;7.338;2023-06-24T04:47:58;18.30;99.90
6879;DHT22;3478;51.462;7.338;2023-06-24T04:53:01;18.40;99.90
6879;DHT22;3478;51.462;7.338;2023-06-24T04:58:03;18.40;99.90
6879;DHT22;3478;51.462;7.338;2023-06-24T05:03:05;18.50;99.90
6879;DHT22;3478;51.462;7.338;2023-06-24T05:08:08;18.60;99.90
6879;DHT22;3478;51.462;7.338;2023-06-24T05:13:10;18.50;99.90
6879;DHT22;3478;51.462;7.338;2023-06-24T05:18:12;18.70;99.90
6879;DHT22;3478;51.462;7.338;2023-06-24T05:23:15;18.90;99.90
6879;DHT22;3478;51.462;7.338;2023-06-24T05:28:17;19.20;99.90
6879;DHT22;3478;51.462;7.338;2023-06-24T05:33:19;19.30;99.90
6879;DHT22;3478;51.462;7.338;2023-06-24T05:38:23;19.50;99.90
6879;DHT22;3478;51.462;7.338;2023-06-24T05:43:26;19.60;99.90
6879;DHT22;3478;51.462;7.338;2023-06-24T05:48:28;19.80;99.90
6879;DHT22;3478;51.462;7.338;2023-06-24T05:53:32;19.90;99.90
6879;DHT22;3478;51.462;7.338;2023-06-24T05:58:33;19.90;99.90
6879;DHT22;3478;51.462;7.338;2023-06-24T06:03:35;19.70;99.90
6879;DHT22;3478;51.462;7.338;2023-06-24T06:08:39;19.80;99.90
6879;DHT22;3478;51.462;7.338;2023-06-24T06:13:41;19.90;99.90
6879;DHT22;3478;51.462;7.338;2023-06-24T06:18:43;20.20;99.90
6879;DHT22;3478;51.462;7.338;2023-06-24T06:23:46;20.30;99.90
6879;DHT22;3478;51.462;7.338;2023-06-24T06:28:48;20.40;99.90
6879;DHT22;3478;51.462;7.338;2023-06-24T06:33:50;20.50;99.90
6879;DHT22;3478;51.462;7.338;2023-06-24T06:38:53;20.60;99.90
6879;DHT22;3478;51.462;7.338;2023-06-24T06:43:55;20.90;99.90
6879;DHT22;3478;51.462;7.338;2023-06-24T06:48:57;21.30;99.90
6879;DHT22;3478;51.462;7.338;2023-06-24T06:54:01;21.60;99.90
6879;DHT22;3478;51.462;7.338;2023-06-24T06:59:03;21.70;99.90
6879;DHT22;3478;51.462;7.338;2023-06-24T07:04:05;21.90;99.90
6879;DHT22;3478;51.462;7.338;2023-06-24T07:09:09;22.20;99.90
6879;DHT22;3478;51.462;7.338;2023-06-24T07:14:11;22.20;99.90
6879;DHT22;3478;51.462;7.338;2023-06-24T07:19:13;22.00;99.90
6879;DHT22;3478;51.462;7.338;2023-06-24T07:24:16;21.90;99.90
6879;DHT22;3478;51.462;7.338;2023-06-24T07:29:18;22.30;99.90
6879;DHT22;3478;51.462;7.338;2023-06-24T07:34:20;22.70;99.90
6879;DHT22;3478;51.462;7.338;2023-06-24T07:39:23;22.90;99.90
6879;DHT22;3478;51.462;7.338;2023-06-24T07:44:25;23.10;99.90
6879;DHT22;3478;51.462;7.338;2023-06-24T07:49:27;22.90;99.90
6879;DHT22;3478;51.462;7.338;2023-06-24T07:54:31;23.00;99.90
6879;DHT22;3478;51.462;7.338;2023-06-24T07:59:33;23.10;99.90
6879;DHT22;3478;51.462;7.338;2023-06-24T08:04:37;23.20;99.90
6879;DHT22;3478;51.462;7.338;2023-06-24T08:09:40;23.50;99.90
6879;DHT22;3478;51.462;7.338;2023-06-24T08:14:42;23.50;99.90
6879;DHT22;3478;51.462;7.338;2023-06-24T08:19:44;23.40;99.90
6879;DHT22;3478;51.462;7.338;2023-06-24T08:24:47;23.20;99.90
6879;DHT22;3478;51.462;7.338;2023-06-24T08:29:49;23.40;99.90
6879;DHT22;3478;51.462;7.338;2023-06-24T08:34:51;23.50;99.90
6879;DHT22;3478;51.462;7.338;2023-06-24T08:39:54;23.50;99.90
6879;DHT22;3478;51.462;7.338;2023-06-24T08:44:56;23.50;99.90
6879;DHT22;3478;51.462;7.338;2023-06-24T08:50:03;23.60;99.90
6879;DHT22;3478;51.462;7.338;2023-06-24T08:55:10;23.80;99.90
6879;DHT22;3478;51.462;7.338;2023-06-24T09:00:14;24.10;99.90
6879;DHT22;3478;51.462;7.338;2023-06-24T09:05:17;24.20;99.90
6879;DHT22;3478;51.462;7.338;2023-06-24T09:10:38;24.60;99.90
6879;DHT22;3478;51.462;7.338;2023-06-24T09:15:40;24.80;99.90
6879;DHT22;3478;51.462;7.338;2023-06-24T09:20:42;25.10;99.90
6879;DHT22;3478;51.462;7.338;2023-06-24T09:25:55;25.30;99.90
6879;DHT22;3478;51.462;7.338;2023-06-24T09:31:05;25.20;99.90
6879;DHT22;3478;51.462;7.338;2023-06-24T09:36:11;25.40;99.90
6879;DHT22;3478;51.462;7.338;2023-06-24T09:41:16;25.70;99.90
6879;DHT22;3478;51.462;7.338;2023-06-24T09:46:18;25.80;99.90
6879;DHT22;3478;51.462;7.338;2023-06-24T09:51:21;26.40;99.90
6879;DHT22;3478;51.462;7.338;2023-06-24T09:56:26;26.90;99.90
6879;DHT22;3478;51.462;7.338;2023-06-24T10:01:29;27.20;99.90
6879;DHT22;3478;51.462;7.338;2023-06-24T10:06:33;27.30;99.90
6879;DHT22;3478;51.462;7.338;2023-06-24T10:11:36;27.10;99.20
6879;DHT22;3478;51.462;7.338;2023-06-24T10:16:38;27.10;99.40
6879;DHT22;3478;51.462;7.338;2023-06-24T10:21:45;27.30;99.30
6879;DHT22;3478;51.462;7.338;2023-06-24T10:26:51;27.50;97.70
6879;DHT22;3478;51.462;7.338;2023-06-24T10:31:53;28.00;97.80
6879;DHT22;3478;51.462;7.338;2023-06-24T10:36:58;28.30;98.10
6879;DHT22;3478;51.462;7.338;2023-06-24T10:42:25;28.00;96.40
6879;DHT22;3478;51.462;7.338;2023-06-24T10:47:29;28.70;96.00
6879;DHT22;3478;51.462;7.338;2023-06-24T10:52:31;28.60;94.20
6879;DHT22;3478;51.462;7.338;2023-06-24T10:57:35;28.80;93.70
6879;DHT22;3478;51.462;7.338;2023-06-24T11:02:37;28.90;92.50
6879;DHT22;3478;51.462;7.338;2023-06-24T11:07:39;28.80;92.30
6879;DHT22;3478;51.462;7.338;2023-06-24T11:12:43;28.70;91.40
6879;DHT22;3478;51.462;7.338;2023-06-24T11:17:50;28.90;90.50
6879;DHT22;3478;51.462;7.338;2023-06-24T11:22:52;29.60;85.30
6879;DHT22;3478;51.462;7.338;2023-06-24T11:27:57;29.50;84.70
6879;DHT22;3478;51.462;7.338;2023-06-24T11:32:59;29.40;78.60
6879;DHT22;3478;51.462;7.338;2023-06-24T11:38:02;29.70;79.70
6879;DHT22;3478;51.462;7.338;2023-06-24T11:43:05;30.40;83.00
6879;DHT22;3478;51.462;7.338;2023-06-24T11:48:08;30.10;78.70
6879;DHT22;3478;51.462;7.338;2023-06-24T11:53:10;30.50;74.10
6879;DHT22;3478;51.462;7.338;2023-06-24T11:58:19;30.40;72.40
6879;DHT22;3478;51.462;7.338;2023-06-24T12:03:22;31.00;70.00
6879;DHT22;3478;51.462;7.338;2023-06-24T12:08:25;30.60;65.80
6879;DHT22;3478;51.462;7.338;2023-06-24T12:13:29;31.10;64.60
6879;DHT22;3478;51.462;7.338;2023-06-24T12:18:31;31.40;59.60
6879;DHT22;3478;51.462;7.338;2023-06-24T12:23:33;32.20;62.80
6879;DHT22;3478;51.462;7.338;2023-06-24T12:28:36;32.90;57.80
6879;DHT22;3478;51.462;7.338;2023-06-24T12:33:38;33.00;58.80
6879;DHT22;3478;51.462;7.338;2023-06-24T12:38:40;33.00;58.10
6879;DHT22;3478;51.462;7.338;2023-06-24T12:43:43;33.30;56.00
6879;DHT22;3478;51.462;7.338;2023-06-24T12:48:45;33.30;54.00
6879;DHT22;3478;51.462;7.338;2023-06-24T12:53:48;33.10;52.70
6879;DHT22;3478;51.462;7.338;2023-06-24T12:58:51;33.00;53.70
6879;DHT22;3478;51.462;7.338;2023-06-24T13:03:53;33.10;51.90
6879;DHT22;3478;51.462;7.338;2023-06-24T13:08:55;34.30;52.60
6879;DHT22;3478;51.462;7.338;2023-06-24T13:13:59;33.90;48.60
6879;DHT22;3478;51.462;7.338;2023-06-24T13:19:01;34.10;49.30
6879;DHT22;3478;51.462;7.338;2023-06-24T13:24:04;34.40;51.40
6879;DHT22;3478;51.462;7.338;2023-06-24T13:29:07;34.10;48.40
6879;DHT22;3478;51.462;7.338;2023-06-24T13:34:09;34.80;50.00
6879;DHT22;3478;51.462;7.338;2023-06-24T13:39:11;35.60;49.10
6879;DHT22;3478;51.462;7.338;2023-06-24T13:44:15;34.80;47.20
6879;DHT22;3478;51.462;7.338;2023-06-24T13:49:17;35.20;47.20
6879;DHT22;3478;51.462;7.338;2023-06-24T13:54:19;34.90;47.10
6879;DHT22;3478;51.462;7.338;2023-06-24T13:59:23;34.50;45.80
6879;DHT22;3478;51.462;7.338;2023-06-24T14:04:25;35.20;47.10
6879;DHT22;3478;51.462;7.338;2023-06-24T14:09:27;34.80;45.40
6879;DHT22;3478;51.462;7.338;2023-06-24T14:14:30;34.60;45.00
6879;DHT22;3478;51.462;7.338;2023-06-24T14:19:32;34.90;45.90
6879;DHT22;3478;51.462;7.338;2023-06-24T14:24:35;34.60;46.60
6879;DHT22;3478;51.462;7.338;2023-06-24T14:29:39;34.90;47.80
6879;DHT22;3478;51.462;7.338;2023-06-24T14:34:41;36.10;45.40
6879;DHT22;3478;51.462;7.338;2023-06-24T14:39:43;36.50;43.30
6879;DHT22;3478;51.462;7.338;2023-06-24T14:44:46;36.40;44.40
6879;DHT22;3478;51.462;7.338;2023-06-24T14:49:49;35.30;42.50
6879;DHT22;3478;51.462;7.338;2023-06-24T14:54:51;35.20;45.60
6879;DHT22;3478;51.462;7.338;2023-06-24T14:59:54;36.30;42.90
6879;DHT22;3478;51.462;7.338;2023-06-24T15:04:57;36.80;41.50
6879;DHT22;3478;51.462;7.338;2023-06-24T15:09:59;35.70;43.60
6879;DHT22;3478;51.462;7.338;2023-06-24T15:15:02;35.10;43.50
6879;DHT22;3478;51.462;7.338;2023-06-24T15:20:06;36.00;42.90
6879;DHT22;3478;51.462;7.338;2023-06-24T15:25:08;35.80;43.20
6879;DHT22;3478;51.462;7.338;2023-06-24T15:30:12;35.50;41.60
6879;DHT22;3478;51.462;7.338;2023-06-24T15:35:14;36.00;43.70
6879;DHT22;3478;51.462;7.338;2023-06-24T15:40:16;35.90;41.20
6879;DHT22;3478;51.462;7.338;2023-06-24T15:45:20;35.90;41.40
6879;DHT22;3478;51.462;7.338;2023-06-24T15:50:22;35.50;40.80
6879;DHT22;3478;51.462;7.338;2023-06-24T15:55:25;35.50;42.30
6879;DHT22;3478;51.462;7.338;2023-06-24T16:00:28;35.60;41.00
6879;DHT22;3478;51.462;7.338;2023-06-24T16:05:30;34.80;41.50
6879;DHT22;3478;51.462;7.338;2023-06-24T16:10:32;35.10;41.00
6879;DHT22;3478;51.462;7.338;2023-06-24T16:15:35;35.30;41.50
6879;DHT22;3478;51.462;7.338;2023-06-24T16:20:37;34.90;41.80
6879;DHT22;3478;51.462;7.338;2023-06-24T16:25:39;34.40;41.70
6879;DHT22;3478;51.462;7.338;2023-06-24T16:30:42;34.50;41.40
6879;DHT22;3478;51.462;7.338;2023-06-24T16:35:45;34.20;42.20
6879;DHT22;3478;51.462;7.338;2023-06-24T16:40:47;34.20;43.10
6879;DHT22;3478;51.462;7.338;2023-06-24T16:45:50;34.70;44.20
6879;DHT22;3478;51.462;7.338;2023-06-24T16:50:52;34.60;43.30
6879;DHT22;3478;51.462;7.338;2023-06-24T16:55:54;34.40;43.30
6879;DHT22;3478;51.462;7.338;2023-06-24T17:00:57;34.50;43.90
6879;DHT22;3478;51.462;7.338;2023-06-24T17:05:59;34.60;44.00
6879;DHT22;3478;51.462;7.338;2023-06-24T17:11:02;34.00;43.30
6879;DHT22;3478;51.462;7.338;2023-06-24T17:16:05;34.10;45.00
6879;DHT22;3478;51.462;7.338;2023-06-24T17:21:07;33.80;45.30
6879;DHT22;3478;51.462;7.338;2023-06-24T17:26:09;33.50;45.10
6879;DHT22;3478;51.462;7.338;2023-06-24T17:31:12;33.50;47.60
6879;DHT22;3478;51.462;7.338;2023-06-24T17:36:15;33.50;46.10
6879;DHT22;3478;51.462;7.338;2023-06-24T17:41:17;33.50;46.80
6879;DHT22;3478;51.462;7.338;2023-06-24T17:46:24;33.20;44.80
6879;DHT22;3478;51.462;7.338;2023-06-24T17:51:26;32.70;46.20
6879;DHT22;3478;51.462;7.338;2023-06-24T17:56:30;32.40;48.80
6879;DHT22;3478;51.462;7.338;2023-06-24T18:01:33;32.00;47.10
6879;DHT22;3478;51.462;7.338;2023-06-24T18:06:35;31.70;49.70
6879;DHT22;3478;51.462;7.338;2023-06-24T18:11:38;31.20;50.30
6879;DHT22;3478;51.462;7.338;2023-06-24T18:16:47;30.60;50.80
6879;DHT22;3478;51.462;7.338;2023-06-24T18:21:49;29.90;51.80
6879;DHT22;3478;51.462;7.338;2023-06-24T18:26:51;29.30;54.10
6879;DHT22;3478;51.462;7.338;2023-06-24T18:31:54;28.80;54.90
6879;DHT22;3478;51.462;7.338;2023-06-24T18:36:56;28.40;55.90
6879;DHT22;3478;51.462;7.338;2023-06-24T18:41:58;28.00;55.50
6879;DHT22;3478;51.462;7.338;2023-06-24T18:47:01;27.70;56.80
6879;DHT22;3478;51.462;7.338;2023-06-24T18:52:07;27.50;57.20
6879;DHT22;3478;51.462;7.338;2023-06-24T18:57:09;27.30;59.30
6879;DHT22;3478;51.462;7.338;2023-06-24T19:02:12;27.10;57.30
6879;DHT22;3478;51.462;7.338;2023-06-24T19:07:14;26.90;55.70
6879;DHT22;3478;51.462;7.338;2023-06-24T19:12:16;26.70;57.40
6879;DHT22;3478;51.462;7.338;2023-06-24T19:17:19;26.60;56.50
6879;DHT22;3478;51.462;7.338;2023-06-24T19:22:21;26.40;58.20
6879;DHT22;3478;51.462;7.338;2023-06-24T19:27:23;26.20;61.20
6879;DHT22;3478;51.462;7.338;2023-06-24T19:32:27;26.00;61.80
6879;DHT22;3478;51.462;7.338;2023-06-24T19:37:29;25.80;62.30
6879;DHT22;3478;51.462;7.338;2023-06-24T19:42:31;25.70;64.30
6879;DHT22;3478;51.462;7.338;2023-06-24T19:47:35;25.50;64.00
6879;DHT22;3478;51.462;7.338;2023-06-24T19:52:37;25.30;65.00
6879;DHT22;3478;51.462;7.338;2023-06-24T19:57:38;25.10;66.00
6879;DHT22;3478;51.462;7.338;2023-06-24T20:02:42;25.00;66.20
6879;DHT22;3478;51.462;7.338;2023-06-24T20:07:44;24.90;68.30
6879;DHT22;3478;51.462;7.338;2023-06-24T20:12:46;24.80;70.00
6879;DHT22;3478;51.462;7.338;2023-06-24T20:17:49;24.70;70.50
6879;DHT22;3478;51.462;7.338;2023-06-24T20:22:51;24.50;71.60
6879;DHT22;3478;51.462;7.338;2023-06-24T20:27:53;24.30;73.60
6879;DHT22;3478;51.462;7.338;2023-06-24T20:32:56;24.20;75.70
6879;DHT22;3478;51.462;7.338;2023-06-24T20:37:58;24.10;77.30
6879;DHT22;3478;51.462;7.338;2023-06-24T20:43:00;23.90;77.40
6879;DHT22;3478;51.462;7.338;2023-06-24T20:48:04;23.80;78.10
6879;DHT22;3478;51.462;7.338;2023-06-24T20:53:06;23.70;79.80
6879;DHT22;3478;51.462;7.338;2023-06-24T20:58:08;23.60;81.00
6879;DHT22;3478;51.462;7.338;2023-06-24T21:03:12;23.50;80.40
6879;DHT22;3478;51.462;7.338;2023-06-24T21:08:14;23.40;80.90
6879;DHT22;3478;51.462;7.338;2023-06-24T21:13:16;23.40;81.50
6879;DHT22;3478;51.462;7.338;2023-06-24T21:18:20;23.30;82.00
6879;DHT22;3478;51.462;7.338;2023-06-24T21:23:21;23.20;81.40
6879;DHT22;3478;51.462;7.338;2023-06-24T21:28:23;23.10;82.50
6879;DHT22;3478;51.462;7.338;2023-06-24T21:33:27;23.00;83.20
6879;DHT22;3478;51.462;7.338;2023-06-24T21:38:28;22.90;88.80
6879;DHT22;3478;51.462;7.338;2023-06-24T21:43:30;22.90;89.80
6879;DHT22;3478;51.462;7.338;2023-06-24T21:48:35;22.80;89.00
6879;DHT22;3478;51.462;7.338;2023-06-24T21:53:39;22.60;87.90
6879;DHT22;3478;51.462;7.338;2023-06-24T21:58:41;22.40;89.50
6879;DHT22;3478;51.462;7.338;2023-06-24T22:03:44;22.30;89.90
6879;DHT22;3478;51.462;7.338;2023-06-24T22:08:46;22.30;90.80
6879;DHT22;3478;51.462;7.338;2023-06-24T22:13:48;22.30;92.20
6879;DHT22;3478;51.462;7.338;2023-06-24T22:18:51;22.30;92.70
6879;DHT22;3478;51.462;7.338;2023-06-24T22:23:53;22.20;92.60
6879;DHT22;3478;51.462;7.338;2023-06-24T22:28:55;22.00;91.30
6879;DHT22;3478;51.462;7.338;2023-06-24T22:33:58;22.00;92.60
6879;DHT22;3478;51.462;7.338;2023-06-24T22:39:00;21.90;94.00
6879;DHT22;3478;51.462;7.338;2023-06-24T22:44:02;21.80;95.20
6879;DHT22;3478;51.462;7.338;2023-06-24T22:49:05;21.80;96.70
6879;DHT22;3478;51.462;7.338;2023-06-24T22:54:07;21.60;97.70
6879;DHT22;3478;51.462;7.338;2023-06-24T22:59:09;21.50;98.10
6879;DHT22;3478;51.462;7.338;2023-06-24T23:04:14;21.50;97.90
6879;DHT22;3478;51.462;7.338;2023-06-24T23:09:16;21.50;98.00
6879;DHT22;3478;51.462;7.338;2023-06-24T23:14:19;21.50;99.90
6879;DHT22;3478;51.462;7.338;2023-06-24T23:19:24;21.30;99.90
6879;DHT22;3478;51.462;7.338;2023-06-24T23:24:26;21.10;99.90
6879;DHT22;3478;51.462;7.338;2023-06-24T23:29:30;20.90;99.90
6879;DHT22;3478;51.462;7.338;2023-06-24T23:34:38;20.90;99.90
6879;DHT22;3478;51.462;7.338;2023-06-24T23:39:41;21.00;99.90
6879;DHT22;3478;51.462;7.338;2023-06-24T23:44:43;20.90;99.90
6879;DHT22;3478;51.462;7.338;2023-06-24T23:49:47;20.80;99.90
6879;DHT22;3478;51.462;7.338;2023-06-24T23:54:48;20.60;99.90
6879;DHT22;3478;51.462;7.338;2023-06-24T23:59:50;20.50;99.90
